createdAt,value
2019-04-14T00:01:04.309Z,49.08
2019-04-14T00:03:45.335Z,50.92
2019-04-14T00:06:15.899Z,56.60
2019-04-14T00:08:46.284Z,54.00
2019-04-14T00:11:16.822Z,52.40
2019-04-14T00:13:46.299Z,50.73
2019-04-14T00:16:16.358Z,49.77
2019-04-14T00:18:46.993Z,50.17
2019-04-14T00:21:17.262Z,53.55
2019-04-14T00:23:47.942Z,50.10
2019-04-14T00:26:33.498Z,52.25
2019-04-14T00:29:04.611Z,52.73
2019-04-14T00:31:34.912Z,56.68
2019-04-14T00:34:09.687Z,53.55
2019-04-14T00:36:52.859Z,55.90
2019-04-14T00:39:29.827Z,54.23
2019-04-14T00:42:10.212Z,51.90
2019-04-14T00:44:41.213Z,57.23
2019-04-14T00:47:15.747Z,56.58
2019-04-14T00:49:46.256Z,54.73
2019-04-14T00:52:16.834Z,59.55
2019-04-14T00:54:47.851Z,55.35
2019-04-14T00:57:18.113Z,56.53
2019-04-14T00:59:48.720Z,55.46
2019-04-14T01:02:19.310Z,55.35
2019-04-14T01:04:49.106Z,58.08
2019-04-14T01:07:19.576Z,58.02
2019-04-14T01:09:48.984Z,56.23
2019-04-14T01:12:19.450Z,52.53
2019-04-14T01:14:49.581Z,54.90
2019-04-14T01:17:19.892Z,53.80
2019-04-14T01:19:50.535Z,50.17
2019-04-14T01:22:20.589Z,54.17
2019-04-14T01:24:51.036Z,51.67
2019-04-14T01:27:21.092Z,52.75
2019-04-14T01:29:51.594Z,55.48
2019-04-14T01:32:21.915Z,50.50
2019-04-14T01:34:53.655Z,50.10
2019-04-14T01:37:22.566Z,49.83
2019-04-14T01:39:52.502Z,52.43
2019-04-14T01:42:23.011Z,51.65
2019-04-14T01:44:52.572Z,55.45
2019-04-14T01:47:22.710Z,52.65
2019-04-14T01:49:53.041Z,55.37
2019-04-14T01:52:27.458Z,51.75
2019-04-14T01:55:16.311Z,56.33
2019-04-14T01:57:50.335Z,52.45
2019-04-14T02:00:22.725Z,52.78
2019-04-14T02:02:53.050Z,53.03
2019-04-14T02:05:23.554Z,52.85
2019-04-14T02:07:53.778Z,52.15
2019-04-14T02:10:23.849Z,52.30
2019-04-14T02:12:54.215Z,56.98
2019-04-14T02:15:24.440Z,53.60
2019-04-14T02:17:54.649Z,53.25
2019-04-14T02:20:25.065Z,53.50
2019-04-14T02:22:55.316Z,56.10
2019-04-14T02:25:25.300Z,50.43
2019-04-14T02:27:55.849Z,54.80
2019-04-14T02:30:32.674Z,56.20
2019-04-14T02:33:23.584Z,52.27
2019-04-14T02:35:55.173Z,54.97
2019-04-14T02:38:34.483Z,58.70
2019-04-14T02:41:03.017Z,53.05
2019-04-14T02:53:42.746Z,54.67
2019-04-14T03:01:19.725Z,56.87
2019-04-14T03:03:41.020Z,55.07
2019-04-14T03:06:13.010Z,51.17
2019-04-14T03:11:19.756Z,60.43
2019-04-14T03:13:51.091Z,56.23
2019-04-14T03:16:27.221Z,56.20
2019-04-14T03:21:29.954Z,57.23
2019-04-14T03:24:07.005Z,53.68
2019-04-14T03:26:45.093Z,57.85
2019-04-14T03:29:23.383Z,52.95
2019-04-14T03:34:33.799Z,52.27
2019-04-14T03:39:24.896Z,55.60
2019-04-14T03:42:00.910Z,49.75
2019-04-14T03:44:34.912Z,49.73
2019-04-14T03:47:10.946Z,49.40
2019-04-14T03:49:32.062Z,50.75
2019-04-14T03:51:57.956Z,50.80
2019-04-14T03:54:27.071Z,50.17
2019-04-14T03:56:51.442Z,49.83
2019-04-14T03:59:21.847Z,47.38
2019-04-14T04:01:52.311Z,54.83
2019-04-14T04:04:22.722Z,51.27
2019-04-14T04:06:53.239Z,49.33
2019-04-14T04:09:25.711Z,50.67
2019-04-14T04:11:56.303Z,47.17
2019-04-14T04:14:26.982Z,49.13
2019-04-14T04:17:07.972Z,53.45
2019-04-14T04:19:45.060Z,40.90
2019-04-14T04:22:17.192Z,51.30
2019-04-14T04:24:48.200Z,50.52
2019-04-14T04:27:28.732Z,37.23
2019-04-14T04:30:08.762Z,47.50
2019-04-14T04:32:54.335Z,49.50
2019-04-14T04:35:31.134Z,45.70
2019-04-14T04:38:18.115Z,48.17
2019-04-14T04:40:48.520Z,48.42
2019-04-14T04:43:18.932Z,45.20
2019-04-14T04:45:49.458Z,46.90
2019-04-14T04:48:19.637Z,46.13
2019-04-14T04:50:49.894Z,47.98
2019-04-14T04:53:20.186Z,46.10
2019-04-14T04:55:50.373Z,45.28
2019-04-14T04:58:20.075Z,43.35
2019-04-14T05:00:52.585Z,41.80
2019-04-14T05:03:21.142Z,48.23
2019-04-14T05:06:26.701Z,44.03
2019-04-14T05:09:12.475Z,45.47
2019-04-14T05:11:44.725Z,47.17
2019-04-14T05:14:15.801Z,46.53
2019-04-14T05:16:46.124Z,49.90
2019-04-14T05:19:23.785Z,48.08
2019-04-14T05:21:47.388Z,46.77
2019-04-14T05:24:17.904Z,48.90
2019-04-14T05:26:48.391Z,49.03
2019-04-14T05:29:18.900Z,47.98
2019-04-14T05:31:49.057Z,45.88
2019-04-14T05:34:19.456Z,49.87
2019-04-14T05:36:50.019Z,68.07
2019-04-14T05:39:19.981Z,126.18
2019-04-14T05:42:01.497Z,78.62
2019-04-14T05:44:20.801Z,62.63
2019-04-14T05:46:51.386Z,58.63
2019-04-14T05:49:30.604Z,52.65
2019-04-14T05:51:52.448Z,52.60
2019-04-14T05:54:23.179Z,51.90
2019-04-14T05:56:53.668Z,53.33
2019-04-14T05:59:24.328Z,53.87
2019-04-14T06:01:54.756Z,50.70
2019-04-14T06:04:24.371Z,50.20
2019-04-14T06:06:53.983Z,49.30
2019-04-14T06:09:24.330Z,50.58
2019-04-14T06:11:53.720Z,49.00
2019-04-14T06:14:23.112Z,46.20
2019-04-14T06:16:52.494Z,50.50
2019-04-14T06:19:21.876Z,44.60
2019-04-14T06:21:51.271Z,49.35
2019-04-14T06:24:20.653Z,44.95
2019-04-14T06:26:50.051Z,54.03
2019-04-14T06:29:19.739Z,46.58
2019-04-14T06:31:50.885Z,44.67
2019-04-14T06:34:27.931Z,36.83
2019-04-14T06:36:58.965Z,47.17
2019-04-14T06:39:41.727Z,44.87
2019-04-14T06:42:11.148Z,46.92
2019-04-14T06:44:40.535Z,48.75
2019-04-14T06:47:10.000Z,46.50
2019-04-14T06:49:48.946Z,50.58
2019-04-14T06:52:10.757Z,48.63
2019-04-14T06:54:40.150Z,48.25
2019-04-14T06:57:10.188Z,44.35
2019-04-14T06:59:40.538Z,48.35
2019-04-14T07:02:10.755Z,45.25
2019-04-14T07:04:40.968Z,48.90
2019-04-14T07:07:11.212Z,50.05
2019-04-14T07:09:41.504Z,52.25
2019-04-14T07:12:11.783Z,49.15
2019-04-14T07:14:41.985Z,48.40
2019-04-14T07:17:12.094Z,47.20
2019-04-14T07:19:42.417Z,46.53
2019-04-14T07:22:12.530Z,42.10
2019-04-14T07:24:42.851Z,45.04
2019-04-14T07:27:13.070Z,47.23
2019-04-14T07:29:50.999Z,43.38
2019-04-14T07:32:31.111Z,41.28
2019-04-14T07:35:10.734Z,39.80
2019-04-14T07:37:44.440Z,41.87
2019-04-14T07:40:32.753Z,41.23
2019-04-14T07:43:03.785Z,43.42
2019-04-14T07:45:34.803Z,41.30
2019-04-14T07:48:05.910Z,37.65
2019-04-14T07:50:36.943Z,39.42
2019-04-14T07:53:15.510Z,36.75
2019-04-14T07:55:58.449Z,38.70
2019-04-14T07:58:44.363Z,36.00
2019-04-14T08:01:15.392Z,35.85
2019-04-14T08:03:46.418Z,39.63
2019-04-14T08:06:16.080Z,32.75
2019-04-14T08:08:47.358Z,31.80
2019-04-14T08:11:17.855Z,32.55
2019-04-14T08:13:47.833Z,32.38
2019-04-14T08:16:18.041Z,34.80
2019-04-14T08:18:48.317Z,32.78
2019-04-14T08:21:18.484Z,32.88
2019-04-14T08:23:48.907Z,31.26
2019-04-14T08:26:19.049Z,30.82
2019-04-14T08:28:49.372Z,33.60
2019-04-14T08:31:19.499Z,37.17
2019-04-14T08:33:50.108Z,33.98
2019-04-14T08:36:20.124Z,34.27
2019-04-14T08:38:50.426Z,34.65
2019-04-14T08:41:20.715Z,33.60
2019-04-14T08:44:08.465Z,37.36
2019-04-14T08:46:55.900Z,37.60
2019-04-14T08:49:26.930Z,35.55
2019-04-14T08:51:57.959Z,38.53
2019-04-14T08:54:28.982Z,37.65
2019-04-14T08:57:02.408Z,37.87
2019-04-14T08:59:39.458Z,39.67
2019-04-14T09:02:13.516Z,38.90
2019-04-14T09:04:56.398Z,32.70
2019-04-14T09:07:27.447Z,38.95
2019-04-14T09:10:01.425Z,34.33
2019-04-14T09:12:32.528Z,35.55
2019-04-14T09:15:01.942Z,31.95
2019-04-14T09:17:31.393Z,34.85
2019-04-14T09:20:00.800Z,35.30
2019-04-14T09:22:30.539Z,31.42
2019-04-14T09:24:59.948Z,28.92
2019-04-14T09:27:29.412Z,31.26
2019-04-14T09:29:58.795Z,31.37
2019-04-14T09:32:28.732Z,35.83
2019-04-14T09:34:58.138Z,38.60
2019-04-14T09:37:27.590Z,33.13
2019-04-14T09:39:56.972Z,32.28
2019-04-14T09:42:26.784Z,33.83
2019-04-14T09:44:57.152Z,37.78
2019-04-14T09:47:27.439Z,32.75
2019-04-14T09:49:57.709Z,35.30
2019-04-14T09:52:27.820Z,32.48
2019-04-14T09:54:58.259Z,34.88
2019-04-14T09:57:28.379Z,35.45
2019-04-14T09:59:58.749Z,34.12
2019-04-14T10:02:28.945Z,36.65
2019-04-14T10:04:59.183Z,33.86
2019-04-14T10:07:29.372Z,33.55
2019-04-14T10:09:59.632Z,35.17
2019-04-14T10:12:29.817Z,32.40
2019-04-14T10:15:00.306Z,34.75
2019-04-14T10:17:30.378Z,35.73
2019-04-14T10:20:00.683Z,35.92
2019-04-14T10:22:34.065Z,35.55
2019-04-14T10:25:01.990Z,36.45
2019-04-14T10:27:31.401Z,30.67
2019-04-14T10:30:01.782Z,36.20
2019-04-14T10:32:32.792Z,33.08
2019-04-14T10:35:02.255Z,36.15
2019-04-14T10:37:32.323Z,32.48
2019-04-14T10:40:06.255Z,36.55
2019-04-14T10:42:35.934Z,35.05
2019-04-14T10:45:06.736Z,33.70
2019-04-14T10:47:36.269Z,37.15
2019-04-14T10:50:06.304Z,36.20
2019-04-14T10:52:35.685Z,29.48
2019-04-14T10:55:07.217Z,34.83
2019-04-14T10:57:36.605Z,34.83
2019-04-14T11:00:10.145Z,33.38
2019-04-14T11:02:39.615Z,28.67
2019-04-14T11:05:09.538Z,31.87
2019-04-14T11:07:38.998Z,33.25
2019-04-14T11:10:09.814Z,29.02
2019-04-14T11:12:39.469Z,31.55
2019-04-14T11:15:09.982Z,31.05
2019-04-14T11:17:39.396Z,34.30
2019-04-14T11:20:09.292Z,30.15
2019-04-14T11:22:38.968Z,28.40
2019-04-14T11:25:08.347Z,31.27
2019-04-14T11:27:37.734Z,33.20
2019-04-14T11:30:09.526Z,28.40
2019-04-14T11:32:58.998Z,29.80
2019-04-14T11:35:32.936Z,29.00
2019-04-14T11:38:04.003Z,29.70
2019-04-14T11:40:37.704Z,29.40
2019-04-14T11:43:07.096Z,28.80
2019-04-14T11:45:36.479Z,29.52
2019-04-14T11:48:06.098Z,30.15
2019-04-14T11:50:35.500Z,28.70
2019-04-14T11:53:05.044Z,26.77
2019-04-14T11:55:34.425Z,31.75
2019-04-14T11:58:03.966Z,31.52
2019-04-14T12:00:51.296Z,32.48
2019-04-14T12:03:22.327Z,35.43
2019-04-14T12:06:09.591Z,36.85
2019-04-14T12:08:56.390Z,35.25
2019-04-14T12:11:25.853Z,34.80
2019-04-14T12:13:55.266Z,31.52
2019-04-14T12:16:24.724Z,40.03
2019-04-14T12:18:54.117Z,34.20
2019-04-14T12:21:23.504Z,30.48
2019-04-14T12:23:52.887Z,35.38
2019-04-14T12:26:22.394Z,35.10
2019-04-14T12:28:51.793Z,34.95
2019-04-14T12:31:21.856Z,35.80
2019-04-14T12:33:51.228Z,39.00
2019-04-14T12:36:21.068Z,33.90
2019-04-14T12:38:50.450Z,32.30
2019-04-14T12:41:37.695Z,30.35
2019-04-14T12:44:08.771Z,32.15
2019-04-14T12:46:39.801Z,30.57
2019-04-14T12:49:16.802Z,35.10
2019-04-14T12:51:56.576Z,28.95
2019-04-14T12:54:27.029Z,36.00
2019-04-14T12:56:56.411Z,33.60
2019-04-14T12:59:26.176Z,32.20
2019-04-14T13:02:06.131Z,33.23
2019-04-14T13:04:35.602Z,32.30
2019-04-14T13:07:06.188Z,32.97
2019-04-14T13:09:35.914Z,34.58
2019-04-14T13:12:05.448Z,38.10
2019-04-14T13:14:34.918Z,36.35
2019-04-14T13:17:04.757Z,33.35
2019-04-14T13:19:34.132Z,32.43
2019-04-14T13:22:03.534Z,37.83
2019-04-14T13:24:32.915Z,38.83
2019-04-14T13:27:02.303Z,40.10
2019-04-14T13:29:31.754Z,39.75
2019-04-14T13:32:01.144Z,36.73
2019-04-14T13:34:30.613Z,37.63
2019-04-14T13:37:00.009Z,35.98
2019-04-14T13:39:29.399Z,38.83
2019-04-14T13:41:58.962Z,37.00
2019-04-14T13:44:28.360Z,35.80
2019-04-14T13:46:57.745Z,36.05
2019-04-14T13:49:27.171Z,36.28
2019-04-14T13:51:58.199Z,35.70
2019-04-14T13:54:27.596Z,38.00
2019-04-14T13:56:57.003Z,36.42
2019-04-14T13:59:26.959Z,34.30
2019-04-14T14:01:56.404Z,37.47
2019-04-14T14:04:25.788Z,34.98
2019-04-14T14:06:55.177Z,37.03
2019-04-14T14:09:24.557Z,36.63
2019-04-14T14:11:55.904Z,34.25
2019-04-14T14:14:32.779Z,38.93
2019-04-14T14:17:20.007Z,37.80
2019-04-14T14:20:06.070Z,38.30
2019-04-14T14:22:37.385Z,38.57
2019-04-14T14:25:14.648Z,38.93
2019-04-14T14:27:44.050Z,38.97
2019-04-14T14:30:15.218Z,37.60
2019-04-14T14:32:44.634Z,35.20
2019-04-14T14:35:14.069Z,37.63
2019-04-14T14:37:43.450Z,37.47
2019-04-14T14:40:13.010Z,34.10
2019-04-14T14:42:42.392Z,37.98
2019-04-14T14:45:17.055Z,35.33
2019-04-14T14:47:48.082Z,33.85
2019-04-14T14:50:24.972Z,34.67
2019-04-14T14:52:54.356Z,36.13
2019-04-14T14:55:23.747Z,39.30
2019-04-14T14:57:53.139Z,37.93
2019-04-14T15:00:24.228Z,37.03
2019-04-14T15:02:53.625Z,36.03
2019-04-14T15:05:24.145Z,36.95
2019-04-14T15:07:53.535Z,36.25
2019-04-14T15:10:22.915Z,38.73
2019-04-14T15:12:52.317Z,38.98
2019-04-14T15:15:21.842Z,39.92
2019-04-14T15:17:51.299Z,37.50
2019-04-14T15:20:20.768Z,37.53
2019-04-14T15:22:52.345Z,35.68
2019-04-14T15:25:21.312Z,39.50
2019-04-14T15:27:50.694Z,35.17
2019-04-14T15:30:21.671Z,36.45
2019-04-14T15:32:52.425Z,31.37
2019-04-14T15:35:21.888Z,31.40
2019-04-14T15:37:51.356Z,37.33
2019-04-14T15:40:20.905Z,33.45
2019-04-14T15:42:50.308Z,33.65
2019-04-14T15:45:19.708Z,29.05
2019-04-14T15:47:49.102Z,31.13
2019-04-14T15:50:19.644Z,33.53
2019-04-14T15:52:49.102Z,33.58
2019-04-14T15:55:19.368Z,33.65
2019-04-14T15:57:56.113Z,32.90
2019-04-14T16:00:43.391Z,33.75
2019-04-14T16:03:14.495Z,31.87
2019-04-14T16:05:45.520Z,33.85
2019-04-14T16:08:19.295Z,35.65
2019-04-14T16:10:50.326Z,35.43
2019-04-14T16:13:21.365Z,33.23
2019-04-14T16:16:04.393Z,35.60
2019-04-14T16:18:38.108Z,37.70
2019-04-14T16:21:07.488Z,35.25
2019-04-14T16:23:49.711Z,35.90
2019-04-14T16:26:15.921Z,39.23
2019-04-14T16:28:49.962Z,35.68
2019-04-14T16:31:32.941Z,38.70
2019-04-14T16:34:03.964Z,36.30
2019-04-14T16:36:33.431Z,40.07
2019-04-14T16:39:03.451Z,40.78
2019-04-14T16:41:34.482Z,36.75
2019-04-14T16:44:04.221Z,35.85
2019-04-14T16:46:33.874Z,36.08
2019-04-14T16:49:03.331Z,34.83
2019-04-14T16:51:40.232Z,32.30
2019-04-14T16:54:14.102Z,32.03
2019-04-14T16:57:01.278Z,35.30
2019-04-14T16:59:30.753Z,31.75
2019-04-14T17:02:10.359Z,31.82
2019-04-14T17:04:31.880Z,31.17
2019-04-14T17:07:01.333Z,34.65
2019-04-14T17:09:30.913Z,36.45
2019-04-14T17:12:00.344Z,33.67
2019-04-14T17:14:46.281Z,37.78
2019-04-14T17:17:26.277Z,32.13
2019-04-14T17:20:02.888Z,34.67
2019-04-14T17:22:35.536Z,32.42
2019-04-14T17:25:08.479Z,34.10
2019-04-14T17:27:43.025Z,32.10
2019-04-14T17:30:30.051Z,32.38
2019-04-14T17:33:04.049Z,37.37
2019-04-14T17:35:51.658Z,37.90
2019-04-14T17:38:39.180Z,36.73
2019-04-14T17:41:15.807Z,35.45
2019-04-14T17:43:47.011Z,34.58
2019-04-14T17:46:26.821Z,36.03
2019-04-14T17:49:03.654Z,30.95
2019-04-14T17:51:34.741Z,28.98
2019-04-14T17:54:14.945Z,27.10
2019-04-14T17:56:48.678Z,30.68
2019-04-14T17:59:25.332Z,30.10
2019-04-14T18:02:02.044Z,29.27
2019-04-14T18:04:36.144Z,32.67
2019-04-14T18:07:07.181Z,30.77
2019-04-14T18:09:54.396Z,23.87
2019-04-14T18:12:27.924Z,29.95
2019-04-14T18:15:04.775Z,29.45
2019-04-14T18:17:35.820Z,32.13
2019-04-14T18:20:20.739Z,32.67
2019-04-14T18:22:51.107Z,33.33
2019-04-14T18:25:20.487Z,34.38
2019-04-14T18:27:51.526Z,30.12
2019-04-14T18:30:25.225Z,31.43
2019-04-14T18:33:09.260Z,32.75
2019-04-14T18:35:55.645Z,31.87
2019-04-14T18:38:32.187Z,35.42
2019-04-14T18:41:12.012Z,35.20
2019-04-14T18:43:43.060Z,33.10
2019-04-14T18:46:14.074Z,32.73
2019-04-14T18:48:45.111Z,31.07
2019-04-14T18:51:22.091Z,31.12
2019-04-14T18:53:56.542Z,30.08
2019-04-14T18:56:43.812Z,31.35
2019-04-14T18:59:31.513Z,32.95
2019-04-14T19:02:01.796Z,30.20
2019-04-14T19:04:31.195Z,31.02
2019-04-14T19:07:00.670Z,27.58
2019-04-14T19:09:32.163Z,29.87
2019-04-14T19:12:05.889Z,31.63
2019-04-14T19:14:36.921Z,30.08
2019-04-14T19:17:10.707Z,31.67
2019-04-14T19:19:41.736Z,29.63
2019-04-14T19:22:11.145Z,26.00
2019-04-14T19:24:40.542Z,32.40
2019-04-14T19:27:09.939Z,32.83
2019-04-14T19:29:39.334Z,31.57
2019-04-14T19:32:08.739Z,32.20
2019-04-14T19:34:38.133Z,30.20
2019-04-14T19:37:07.527Z,28.02
2019-04-14T19:39:37.892Z,31.68
2019-04-14T19:42:07.286Z,30.70
2019-04-14T19:44:36.696Z,30.50
2019-04-14T19:47:06.071Z,28.50
2019-04-14T19:49:35.483Z,31.27
2019-04-14T19:52:04.944Z,29.12
2019-04-14T19:54:35.304Z,29.63
2019-04-14T19:57:04.813Z,30.97
2019-04-14T19:59:34.205Z,33.85
2019-04-14T20:02:03.644Z,29.98
2019-04-14T20:04:33.032Z,31.68
2019-04-14T20:07:03.487Z,30.77
2019-04-14T20:09:32.953Z,27.85
2019-04-14T20:12:02.407Z,29.50
2019-04-14T20:14:31.805Z,27.05
2019-04-14T20:17:19.011Z,24.52
2019-04-14T20:19:52.454Z,28.32
2019-04-14T20:22:26.744Z,26.50
2019-04-14T20:25:10.384Z,26.82
2019-04-14T20:30:49.334Z,25.55
2019-04-14T20:33:19.494Z,31.47
2019-04-14T20:35:48.884Z,25.48
2019-04-14T20:38:18.280Z,25.72
2019-04-14T20:40:47.714Z,22.50
2019-04-14T20:43:17.053Z,21.07
2019-04-14T20:45:46.446Z,20.55
2019-04-14T20:48:15.862Z,20.55
2019-04-14T20:50:45.294Z,21.17
2019-04-14T20:53:14.709Z,17.77
2019-04-14T20:55:47.360Z,16.48
2019-04-14T20:58:15.328Z,16.67
2019-04-14T21:00:44.790Z,18.12
2019-04-14T21:03:32.278Z,20.70
2019-04-14T21:06:03.297Z,16.06
2019-04-14T21:08:51.692Z,15.32
2019-04-14T21:11:40.925Z,16.50
2019-04-14T21:16:55.503Z,20.23
2019-04-14T21:19:35.389Z,18.10
2019-04-14T21:22:15.479Z,13.62
2019-04-14T21:24:58.667Z,14.98
2019-04-14T21:27:44.807Z,12.13
2019-04-14T21:30:29.639Z,11.50
2019-04-14T21:33:09.207Z,10.83
2019-04-14T21:35:42.936Z,11.08
2019-04-14T21:38:14.140Z,11.25
2019-04-14T21:40:53.952Z,9.50
2019-04-14T21:43:23.330Z,8.90
2019-04-14T21:45:52.705Z,8.90
2019-04-14T21:48:22.090Z,9.50
2019-04-14T21:50:57.122Z,7.83
2019-04-14T21:53:27.242Z,7.08
2019-04-14T21:55:57.252Z,6.28
2019-04-14T21:58:29.143Z,7.65
2019-04-14T22:01:34.121Z,7.87
2019-04-14T22:04:08.364Z,5.45
2019-04-14T22:06:39.367Z,5.47
2019-04-14T22:09:19.460Z,5.58
2019-04-14T22:11:48.989Z,6.03
2019-04-14T22:14:18.382Z,7.00
2019-04-14T22:16:47.774Z,6.35
2019-04-14T22:19:17.228Z,6.85
2019-04-14T22:21:47.514Z,6.92
2019-04-14T22:24:17.036Z,6.83
2019-04-14T22:26:46.412Z,7.50
2019-04-14T22:29:15.866Z,6.67
2019-04-14T22:31:45.252Z,8.83
2019-04-14T22:34:14.634Z,6.78
2019-04-14T22:36:44.002Z,7.42
2019-04-14T22:39:18.179Z,8.70
2019-04-14T22:41:47.548Z,7.08
2019-04-14T22:44:16.953Z,6.62
2019-04-14T22:46:46.329Z,9.90
2019-04-14T22:49:15.997Z,8.65
2019-04-14T22:51:45.380Z,9.75
2019-04-14T22:54:15.098Z,11.70
2019-04-14T22:56:44.758Z,9.85
2019-04-14T22:59:14.168Z,8.05
2019-04-14T23:01:45.187Z,9.18
2019-04-14T23:04:24.956Z,9.40
2019-04-14T23:06:58.788Z,9.37
2019-04-14T23:09:29.817Z,8.83
2019-04-14T23:12:06.563Z,8.83
2019-04-14T23:14:37.585Z,9.83
2019-04-14T23:17:24.877Z,8.48
2019-04-14T23:20:02.761Z,6.75
2019-04-14T23:22:33.850Z,7.10
2019-04-14T23:25:03.299Z,7.95
2019-04-14T23:27:32.751Z,6.80
2019-04-14T23:30:03.159Z,7.20
2019-04-14T23:32:32.719Z,7.37
2019-04-14T23:35:02.102Z,7.58
2019-04-14T23:37:31.470Z,7.60
2019-04-14T23:40:00.859Z,7.17
2019-04-14T23:42:31.190Z,9.35
2019-04-14T23:45:00.578Z,10.38
2019-04-14T23:47:30.017Z,7.83
2019-04-14T23:49:59.684Z,8.25
2019-04-14T23:52:29.063Z,8.85
2019-04-14T23:54:58.439Z,10.58
2019-04-14T23:57:27.894Z,8.55
2019-04-14T23:59:57.549Z,9.45
